This is the latest recevied weather packets stored in our database for station/object PY2VE-13. If no packets are shown the sender has not sent any weather packets the latest 10 day(s).
| Time | Temp. | Humidity | Pressure | Rain* | Wind** | Luminosity | Snow |
|---|---|---|---|---|---|---|---|
| 1788643611 | 23.33° C | 75% | 1017.1 hPa | - | - | - | - |
| 1788639111 | 22.78° C | 76% | 1016.3 hPa | - | - | - | - |
| 1788637311 | 23.33° C | 75% | 1017.1 hPa | - | - | - | - |
| 1788636411 | 24.44° C | 66% | 1015.8 hPa | - | - | - | - |
| 1788635511 | 24.44° C | 68% | 1015.6 hPa | - | - | - | - |
| 1788632811 | 23.89° C | 69% | 1016.5 hPa | - | - | - | - |
| 1788631911 | 23.89° C | 72% | 1017.7 hPa | - | - | - | - |
| 1788630111 | 21.67° C | 87% | 1018.8 hPa | - | - | - | - |
| 1788629211 | 21.11° C | 93% | 1018.8 hPa | - | - | - | - |
| 1788628311 | 21.67° C | 99% | 1019.3 hPa | - | - | - | - |
| 1788625611 | 24.44° C | 65% | 1016 hPa | - | - | - | - |
| 1788624711 | 24.44° C | 64% | 1016.3 hPa | - | - | - | - |
| 1788623811 | 25° C | 62% | 1016.9 hPa | - | - | - | - |
| 1788622011 | 26.11° C | 55% | 1017.2 hPa | - | - | - | - |
| 1788621111 | 28.33° C | 47% | 1016.3 hPa | - | - | - | - |
| 1788620211 | 27.78° C | 48% | 1016.7 hPa | - | - | - | - |
| 1788619311 | 28.89° C | 45% | 1016.2 hPa | - | - | - | - |
| 1788618411 | 29.44° C | 43% | 1016 hPa | - | - | - | - |
| 1788617511 | 28.89° C | 44% | 1015.6 hPa | - | - | - | - |
| 1788616611 | 27.78° C | 47% | 1016.1 hPa | - | - | - | - |
| 1788615711 | 28.33° C | 47% | 1016.4 hPa | - | - | - | - |
| 1788614811 | 28.89° C | 46% | 1016.4 hPa | - | - | - | - |
| 1788613911 | 28.89° C | 47% | 1016.9 hPa | - | - | - | - |
| 1788613011 | 28.89° C | 46% | 1016.9 hPa | - | - | - | - |
| 1788612111 | 27.78° C | 48% | 1017.3 hPa | - | - | - | - |
* Rain since midnight (hover to see other rain measurements)
** Current wind speed in m/s (hover to see current wind gust speed)